sensor_id;sensor_type;location;lat;lon;timestamp;noise_LAeq;noise_LA_min;noise_LA_max;noise_LA01;noise_LA95
40465;Laerm;30489;48.982;8.394;2024-03-23T00:54:20;39.99;38.37;41.46;;
40465;Laerm;30489;48.982;8.394;2024-03-23T00:56:30;39.98;38.52;41.38;;
40465;Laerm;30489;48.982;8.394;2024-03-23T00:58:40;39.99;38.05;41.53;;
40465;Laerm;30489;48.982;8.394;2024-03-23T01:00:51;39.99;38.52;41.38;;
40465;Laerm;30489;48.982;8.394;2024-03-23T01:03:01;39.99;37.88;41.68;;
40465;Laerm;30489;48.982;8.394;2024-03-23T01:05:11;40.04;38.05;41.46;;
40465;Laerm;30489;48.982;8.394;2024-03-23T01:07:21;40.02;38.37;41.53;;
40465;Laerm;30489;48.982;8.394;2024-03-23T01:09:32;40.02;38.37;41.30;;
40465;Laerm;30489;48.982;8.394;2024-03-23T01:11:42;40.02;38.37;41.38;;
40465;Laerm;30489;48.982;8.394;2024-03-23T01:13:53;40.02;38.21;41.46;;
40465;Laerm;30489;48.982;8.394;2024-03-23T01:16:05;40.03;38.37;41.30;;
40465;Laerm;30489;48.982;8.394;2024-03-23T01:18:15;40.05;38.37;41.68;;
40465;Laerm;30489;48.982;8.394;2024-03-23T01:20:25;40.05;38.37;41.48;;
40465;Laerm;30489;48.982;8.394;2024-03-23T01:22:35;40.05;38.05;41.38;;
40465;Laerm;30489;48.982;8.394;2024-03-23T01:24:45;40.08;38.05;41.46;;
40465;Laerm;30489;48.982;8.394;2024-03-23T01:26:56;40.05;38.37;41.38;;
40465;Laerm;30489;48.982;8.394;2024-03-23T01:29:06;40.04;38.52;41.68;;
40465;Laerm;30489;48.982;8.394;2024-03-23T01:31:16;40.03;38.37;41.38;;
40465;Laerm;30489;48.982;8.394;2024-03-23T01:33:26;40.02;38.37;41.68;;
40465;Laerm;30489;48.982;8.394;2024-03-23T01:35:37;40.04;38.52;43.55;;
40465;Laerm;30489;48.982;8.394;2024-03-23T01:37:47;40.08;38.21;41.53;;
40465;Laerm;30489;48.982;8.394;2024-03-23T01:39:57;40.09;38.37;41.61;;
40465;Laerm;30489;48.982;8.394;2024-03-23T01:42:07;40.14;38.21;41.61;;
40465;Laerm;30489;48.982;8.394;2024-03-23T01:44:18;40.14;38.52;41.61;;
40465;Laerm;30489;48.982;8.394;2024-03-23T01:46:28;40.19;38.52;41.53;;
40465;Laerm;30489;48.982;8.394;2024-03-23T01:48:38;40.20;38.67;41.46;;
40465;Laerm;30489;48.982;8.394;2024-03-23T01:50:48;40.27;38.81;41.75;;
40465;Laerm;30489;48.982;8.394;2024-03-23T01:53:00;40.31;38.81;41.61;;
40465;Laerm;30489;48.982;8.394;2024-03-23T01:55:10;40.36;38.67;41.61;;
40465;Laerm;30489;48.982;8.394;2024-03-23T01:57:20;40.39;38.67;42.03;;
40465;Laerm;30489;48.982;8.394;2024-03-23T01:59:31;40.42;38.95;41.82;;
40465;Laerm;30489;48.982;8.394;2024-03-23T02:01:42;40.46;38.95;41.68;;
40465;Laerm;30489;48.982;8.394;2024-03-23T02:03:52;40.46;38.95;41.96;;
40465;Laerm;30489;48.982;8.394;2024-03-23T02:06:02;40.49;38.95;41.82;;
40465;Laerm;30489;48.982;8.394;2024-03-23T02:08:13;40.52;38.81;41.82;;
40465;Laerm;30489;48.982;8.394;2024-03-23T02:10:24;40.53;39.08;41.81;;
40465;Laerm;30489;48.982;8.394;2024-03-23T02:12:34;40.55;38.81;41.96;;
40465;Laerm;30489;48.982;8.394;2024-03-23T02:14:44;40.56;38.95;42.22;;
40465;Laerm;30489;48.982;8.394;2024-03-23T02:16:55;40.58;39.08;41.82;;
40465;Laerm;30489;48.982;8.394;2024-03-23T02:19:05;40.59;39.08;42.09;;
40465;Laerm;30489;48.982;8.394;2024-03-23T02:21:15;40.61;39.08;41.89;;
40465;Laerm;30489;48.982;8.394;2024-03-23T02:23:25;40.64;39.21;41.96;;
40465;Laerm;30489;48.982;8.394;2024-03-23T02:25:36;40.65;38.81;42.09;;
40465;Laerm;30489;48.982;8.394;2024-03-23T02:27:46;40.66;39.21;41.96;;
40465;Laerm;30489;48.982;8.394;2024-03-23T02:29:56;40.65;38.95;41.89;;
40465;Laerm;30489;48.982;8.394;2024-03-23T02:32:06;40.66;39.21;42.03;;
40465;Laerm;30489;48.982;8.394;2024-03-23T02:34:19;40.67;39.21;42.03;;
40465;Laerm;30489;48.982;8.394;2024-03-23T02:36:29;40.67;39.34;42.03;;
40465;Laerm;30489;48.982;8.394;2024-03-23T02:38:41;40.68;39.21;41.96;;
40465;Laerm;30489;48.982;8.394;2024-03-23T02:40:51;40.69;39.34;41.96;;
40465;Laerm;30489;48.982;8.394;2024-03-23T02:43:01;40.70;38.95;41.96;;
40465;Laerm;30489;48.982;8.394;2024-03-23T02:45:12;40.71;39.21;41.89;;
40465;Laerm;30489;48.982;8.394;2024-03-23T02:47:22;40.70;39.21;42.00;;
40465;Laerm;30489;48.982;8.394;2024-03-23T02:49:32;40.73;39.34;42.03;;
40465;Laerm;30489;48.982;8.394;2024-03-23T02:51:42;40.72;39.08;41.96;;
40465;Laerm;30489;48.982;8.394;2024-03-23T02:53:55;40.73;39.34;41.96;;
40465;Laerm;30489;48.982;8.394;2024-03-23T02:56:05;40.73;39.46;42.03;;
40465;Laerm;30489;48.982;8.394;2024-03-23T02:58:16;40.74;39.34;42.16;;
40465;Laerm;30489;48.982;8.394;2024-03-23T03:00:26;40.73;39.08;41.96;;
40465;Laerm;30489;48.982;8.394;2024-03-23T03:02:37;40.72;39.08;42.03;;
40465;Laerm;30489;48.982;8.394;2024-03-23T03:04:47;40.71;39.21;41.96;;
40465;Laerm;30489;48.982;8.394;2024-03-23T03:06:57;40.70;39.21;42.03;;
40465;Laerm;30489;48.982;8.394;2024-03-23T03:09:08;40.69;39.08;41.96;;
40465;Laerm;30489;48.982;8.394;2024-03-23T03:11:18;40.68;39.21;41.96;;
40465;Laerm;30489;48.982;8.394;2024-03-23T03:13:28;40.67;39.08;42.03;;
40465;Laerm;30489;48.982;8.394;2024-03-23T03:15:40;40.66;39.08;41.89;;
40465;Laerm;30489;48.982;8.394;2024-03-23T03:17:50;40.65;38.81;41.96;;
40465;Laerm;30489;48.982;8.394;2024-03-23T03:20:00;40.63;39.08;41.96;;
40465;Laerm;30489;48.982;8.394;2024-03-23T03:22:10;40.63;38.95;41.75;;
40465;Laerm;30489;48.982;8.394;2024-03-23T03:24:21;40.63;39.08;42.09;;
40465;Laerm;30489;48.982;8.394;2024-03-23T03:26:31;40.63;38.95;42.22;;
40465;Laerm;30489;48.982;8.394;2024-03-23T03:28:42;40.63;39.08;41.96;;
40465;Laerm;30489;48.982;8.394;2024-03-23T03:30:52;40.63;38.95;41.89;;
40465;Laerm;30489;48.982;8.394;2024-03-23T03:33:02;40.63;39.21;42.09;;
40465;Laerm;30489;48.982;8.394;2024-03-23T03:35:13;40.68;39.21;41.89;;
40465;Laerm;30489;48.982;8.394;2024-03-23T03:37:24;40.76;39.08;41.96;;
40465;Laerm;30489;48.982;8.394;2024-03-23T03:39:34;40.79;39.08;41.89;;
40465;Laerm;30489;48.982;8.394;2024-03-23T03:41:44;40.82;39.21;42.03;;
40465;Laerm;30489;48.982;8.394;2024-03-23T03:43:54;40.84;39.21;42.22;;
40465;Laerm;30489;48.982;8.394;2024-03-23T03:46:05;40.89;39.34;42.16;;
40465;Laerm;30489;48.982;8.394;2024-03-23T03:48:18;40.88;39.08;42.09;;
40465;Laerm;30489;48.982;8.394;2024-03-23T03:50:28;40.88;39.21;42.16;;
40465;Laerm;30489;48.982;8.394;2024-03-23T03:52:38;40.90;39.21;42.03;;
40465;Laerm;30489;48.982;8.394;2024-03-23T03:54:48;40.88;39.46;42.03;;
40465;Laerm;30489;48.982;8.394;2024-03-23T03:56:59;40.88;39.46;42.29;;
40465;Laerm;30489;48.982;8.394;2024-03-23T03:59:09;40.89;39.08;42.53;;
40465;Laerm;30489;48.982;8.394;2024-03-23T04:01:19;40.88;39.46;42.16;;
40465;Laerm;30489;48.982;8.394;2024-03-23T04:03:30;40.91;39.46;42.16;;
40465;Laerm;30489;48.982;8.394;2024-03-23T04:05:40;40.91;39.58;42.41;;
40465;Laerm;30489;48.982;8.394;2024-03-23T04:07:50;40.92;39.46;42.03;;
40465;Laerm;30489;48.982;8.394;2024-03-23T04:10:01;40.93;39.58;42.16;;
40465;Laerm;30489;48.982;8.394;2024-03-23T04:12:11;40.93;38.95;42.29;;
40465;Laerm;30489;48.982;8.394;2024-03-23T04:14:21;40.93;39.46;42.41;;
40465;Laerm;30489;48.982;8.394;2024-03-23T04:16:34;40.93;39.21;42.22;;
40465;Laerm;30489;48.982;8.394;2024-03-23T04:18:44;40.93;39.58;42.53;;
40465;Laerm;30489;48.982;8.394;2024-03-23T04:20:57;40.91;39.58;42.03;;
40465;Laerm;30489;48.982;8.394;2024-03-23T04:23:07;40.94;39.46;42.22;;
40465;Laerm;30489;48.982;8.394;2024-03-23T04:25:17;40.93;39.46;42.29;;
40465;Laerm;30489;48.982;8.394;2024-03-23T04:27:29;40.95;39.58;42.03;;
40465;Laerm;30489;48.982;8.394;2024-03-23T04:29:39;40.95;39.70;42.19;;
40465;Laerm;30489;48.982;8.394;2024-03-23T04:31:50;40.93;39.46;42.13;;
40465;Laerm;30489;48.982;8.394;2024-03-23T04:34:00;40.93;39.46;42.22;;
40465;Laerm;30489;48.982;8.394;2024-03-23T04:36:11;40.89;39.21;42.03;;
40465;Laerm;30489;48.982;8.394;2024-03-23T04:38:21;40.87;39.46;42.09;;
40465;Laerm;30489;48.982;8.394;2024-03-23T04:40:31;40.84;39.46;42.29;;
40465;Laerm;30489;48.982;8.394;2024-03-23T04:42:41;40.82;38.67;41.96;;
40465;Laerm;30489;48.982;8.394;2024-03-23T04:44:53;40.80;39.21;42.16;;
40465;Laerm;30489;48.982;8.394;2024-03-23T04:47:03;40.84;39.34;42.06;;
40465;Laerm;30489;48.982;8.394;2024-03-23T04:49:15;40.81;39.21;42.03;;
40465;Laerm;30489;48.982;8.394;2024-03-23T04:51:25;40.80;39.34;41.96;;
40465;Laerm;30489;48.982;8.394;2024-03-23T04:53:36;40.76;39.21;42.09;;
40465;Laerm;30489;48.982;8.394;2024-03-23T04:55:46;40.72;39.08;42.16;;
40465;Laerm;30489;48.982;8.394;2024-03-23T04:57:56;40.69;39.21;42.16;;
40465;Laerm;30489;48.982;8.394;2024-03-23T05:00:07;40.65;39.34;41.89;;
40465;Laerm;30489;48.982;8.394;2024-03-23T05:02:26;40.66;39.08;41.89;;
40465;Laerm;30489;48.982;8.394;2024-03-23T05:04:37;40.63;39.21;41.89;;
40465;Laerm;30489;48.982;8.394;2024-03-23T05:06:47;40.65;39.11;41.68;;
40465;Laerm;30489;48.982;8.394;2024-03-23T05:08:57;40.64;39.21;42.09;;
40465;Laerm;30489;48.982;8.394;2024-03-23T05:11:08;40.66;39.21;42.03;;
40465;Laerm;30489;48.982;8.394;2024-03-23T05:13:18;40.70;39.21;41.96;;
40465;Laerm;30489;48.982;8.394;2024-03-23T05:15:28;40.71;39.21;42.03;;
40465;Laerm;30489;48.982;8.394;2024-03-23T05:17:39;40.80;38.95;42.13;;
40465;Laerm;30489;48.982;8.394;2024-03-23T05:19:50;40.91;39.46;41.96;;
40465;Laerm;30489;48.982;8.394;2024-03-23T05:22:00;40.94;39.46;44.04;;
40465;Laerm;30489;48.982;8.394;2024-03-23T05:24:10;40.97;39.58;42.09;;
40465;Laerm;30489;48.982;8.394;2024-03-23T05:26:22;41.04;39.34;42.29;;
40465;Laerm;30489;48.982;8.394;2024-03-23T05:28:32;41.06;39.35;42.22;;
40465;Laerm;30489;48.982;8.394;2024-03-23T05:30:42;41.06;39.58;42.29;;
40465;Laerm;30489;48.982;8.394;2024-03-23T05:32:52;41.07;39.70;42.09;;
40465;Laerm;30489;48.982;8.394;2024-03-23T05:35:02;41.11;39.46;42.42;;
40465;Laerm;30489;48.982;8.394;2024-03-23T05:37:13;41.11;39.70;42.29;;
40465;Laerm;30489;48.982;8.394;2024-03-23T05:39:23;41.11;39.92;42.41;;
40465;Laerm;30489;48.982;8.394;2024-03-23T05:41:34;41.08;39.58;42.35;;
40465;Laerm;30489;48.982;8.394;2024-03-23T05:43:46;41.08;39.81;42.16;;
40465;Laerm;30489;48.982;8.394;2024-03-23T05:45:56;41.08;39.34;42.22;;
40465;Laerm;30489;48.982;8.394;2024-03-23T05:48:07;41.07;39.46;42.24;;
40465;Laerm;30489;48.982;8.394;2024-03-23T05:50:17;41.07;39.81;42.16;;
40465;Laerm;30489;48.982;8.394;2024-03-23T05:52:28;41.09;39.81;42.35;;
40465;Laerm;30489;48.982;8.394;2024-03-23T05:54:38;41.08;39.34;42.16;;
40465;Laerm;30489;48.982;8.394;2024-03-23T05:56:48;41.04;39.58;42.16;;
40465;Laerm;30489;48.982;8.394;2024-03-23T05:58:58;41.04;39.34;42.35;;
40465;Laerm;30489;48.982;8.394;2024-03-23T06:01:08;41.03;39.70;42.41;;
40465;Laerm;30489;48.982;8.394;2024-03-23T06:03:20;41.06;39.46;43.44;;
40465;Laerm;30489;48.982;8.394;2024-03-23T06:05:30;41.03;39.58;43.19;;
40465;Laerm;30489;48.982;8.394;2024-03-23T06:07:41;41.03;39.70;42.29;;
40465;Laerm;30489;48.982;8.394;2024-03-23T06:09:51;41.03;39.21;42.59;;
40465;Laerm;30489;48.982;8.394;2024-03-23T06:12:01;40.99;39.58;42.47;;
40465;Laerm;30489;48.982;8.394;2024-03-23T06:14:11;40.99;39.70;42.88;;
40465;Laerm;30489;48.982;8.394;2024-03-23T06:16:22;41.01;39.70;42.22;;
40465;Laerm;30489;48.982;8.394;2024-03-23T06:18:35;41.00;39.34;42.29;;
40465;Laerm;30489;48.982;8.394;2024-03-23T06:20:45;41.01;39.46;42.41;;
40465;Laerm;30489;48.982;8.394;2024-03-23T06:22:56;41.00;39.70;42.22;;
40465;Laerm;30489;48.982;8.394;2024-03-23T06:25:06;40.99;39.34;42.09;;
40465;Laerm;30489;48.982;8.394;2024-03-23T06:27:17;41.01;39.58;42.29;;
40465;Laerm;30489;48.982;8.394;2024-03-23T06:29:27;41.00;39.46;42.36;;
40465;Laerm;30489;48.982;8.394;2024-03-23T06:31:37;40.98;39.21;42.22;;
40465;Laerm;30489;48.982;8.394;2024-03-23T06:33:47;40.97;39.58;42.29;;
40465;Laerm;30489;48.982;8.394;2024-03-23T06:35:58;40.97;39.58;42.22;;
40465;Laerm;30489;48.982;8.394;2024-03-23T06:38:08;41.04;39.34;47.50;;
40465;Laerm;30489;48.982;8.394;2024-03-23T06:40:18;41.00;39.58;42.29;;
40465;Laerm;30489;48.982;8.394;2024-03-23T06:42:28;40.98;39.58;42.22;;
40465;Laerm;30489;48.982;8.394;2024-03-23T06:44:39;40.96;39.57;42.29;;
40465;Laerm;30489;48.982;8.394;2024-03-23T06:46:49;40.99;39.58;42.22;;
40465;Laerm;30489;48.982;8.394;2024-03-23T06:49:00;40.99;39.46;42.09;;
40465;Laerm;30489;48.982;8.394;2024-03-23T06:51:10;40.97;39.46;42.29;;
40465;Laerm;30489;48.982;8.394;2024-03-23T06:53:20;40.97;39.58;42.16;;
40465;Laerm;30489;48.982;8.394;2024-03-23T06:55:30;40.96;39.34;42.16;;
40465;Laerm;30489;48.982;8.394;2024-03-23T06:57:40;40.98;39.58;42.22;;
40465;Laerm;30489;48.982;8.394;2024-03-23T06:59:51;40.99;39.70;42.16;;
40465;Laerm;30489;48.982;8.394;2024-03-23T07:02:01;40.98;39.46;42.35;;
40465;Laerm;30489;48.982;8.394;2024-03-23T07:04:11;40.99;39.46;42.29;;
40465;Laerm;30489;48.982;8.394;2024-03-23T07:06:21;40.98;39.23;42.16;;
40465;Laerm;30489;48.982;8.394;2024-03-23T07:08:32;40.95;39.58;42.22;;
40465;Laerm;30489;48.982;8.394;2024-03-23T07:10:42;40.94;39.58;42.22;;
40465;Laerm;30489;48.982;8.394;2024-03-23T07:12:52;40.93;39.58;42.16;;
40465;Laerm;30489;48.982;8.394;2024-03-23T07:15:02;40.96;39.70;42.22;;
40465;Laerm;30489;48.982;8.394;2024-03-23T07:17:13;41.06;39.81;43.77;;
40465;Laerm;30489;48.982;8.394;2024-03-23T07:19:23;41.09;39.46;46.38;;
40465;Laerm;30489;48.982;8.394;2024-03-23T07:21:34;41.11;39.70;42.35;;
40465;Laerm;30489;48.982;8.394;2024-03-23T07:23:45;41.19;39.81;48.20;;
40465;Laerm;30489;48.982;8.394;2024-03-23T07:26:02;41.13;39.70;42.29;;
40465;Laerm;30489;48.982;8.394;2024-03-23T07:28:12;41.16;39.81;42.47;;
40465;Laerm;30489;48.982;8.394;2024-03-23T07:30:22;41.16;39.58;42.29;;
40465;Laerm;30489;48.982;8.394;2024-03-23T07:32:33;41.16;39.70;44.47;;
40465;Laerm;30489;48.982;8.394;2024-03-23T07:34:43;41.15;39.58;42.24;;
40465;Laerm;30489;48.982;8.394;2024-03-23T07:36:54;41.11;39.46;42.16;;
40465;Laerm;30489;48.982;8.394;2024-03-23T07:39:04;41.09;39.70;42.35;;
40465;Laerm;30489;48.982;8.394;2024-03-23T07:41:15;41.05;39.58;42.35;;
40465;Laerm;30489;48.982;8.394;2024-03-23T07:43:27;41.04;39.70;42.35;;
40465;Laerm;30489;48.982;8.394;2024-03-23T07:45:38;41.01;39.70;42.22;;
40465;Laerm;30489;48.982;8.394;2024-03-23T07:47:48;41.02;39.70;42.41;;
40465;Laerm;30489;48.982;8.394;2024-03-23T07:49:58;41.03;39.58;42.22;;
40465;Laerm;30489;48.982;8.394;2024-03-23T07:52:09;41.02;39.58;42.24;;
40465;Laerm;30489;48.982;8.394;2024-03-23T07:54:19;41.03;39.58;42.41;;
40465;Laerm;30489;48.982;8.394;2024-03-23T07:56:29;41.04;39.58;42.22;;
40465;Laerm;30489;48.982;8.394;2024-03-23T07:58:40;41.05;39.34;42.53;;
40465;Laerm;30489;48.982;8.394;2024-03-23T08:00:50;41.08;39.81;42.22;;
40465;Laerm;30489;48.982;8.394;2024-03-23T08:03:01;41.08;39.81;42.41;;
40465;Laerm;30489;48.982;8.394;2024-03-23T08:05:11;41.11;39.78;42.35;;
40465;Laerm;30489;48.982;8.394;2024-03-23T08:07:22;41.12;39.58;42.29;;
40465;Laerm;30489;48.982;8.394;2024-03-23T08:09:32;41.14;39.81;42.41;;
40465;Laerm;30489;48.982;8.394;2024-03-23T08:11:42;41.16;39.70;42.41;;
40465;Laerm;30489;48.982;8.394;2024-03-23T08:13:55;41.21;39.81;42.29;;
40465;Laerm;30489;48.982;8.394;2024-03-23T08:16:06;41.26;39.92;42.53;;
40465;Laerm;30489;48.982;8.394;2024-03-23T08:18:16;41.29;39.99;42.53;;
40465;Laerm;30489;48.982;8.394;2024-03-23T08:20:26;41.30;39.70;42.47;;
40465;Laerm;30489;48.982;8.394;2024-03-23T08:22:37;41.33;40.03;42.53;;
40465;Laerm;30489;48.982;8.394;2024-03-23T08:24:47;41.41;40.23;48.76;;
40465;Laerm;30489;48.982;8.394;2024-03-23T08:26:57;41.49;40.23;42.76;;
40465;Laerm;30489;48.982;8.394;2024-03-23T08:29:08;41.55;40.18;42.65;;
40465;Laerm;30489;48.982;8.394;2024-03-23T08:31:18;41.65;40.53;42.76;;
40465;Laerm;30489;48.982;8.394;2024-03-23T08:33:28;41.83;40.62;46.15;;
40465;Laerm;30489;48.982;8.394;2024-03-23T08:35:38;41.88;40.71;43.09;;
40465;Laerm;30489;48.982;8.394;2024-03-23T08:37:49;41.92;40.63;43.19;;
40465;Laerm;30489;48.982;8.394;2024-03-23T08:39:59;41.97;40.80;43.09;;
40465;Laerm;30489;48.982;8.394;2024-03-23T08:42:09;42.00;40.71;42.98;;
40465;Laerm;30489;48.982;8.394;2024-03-23T08:44:19;42.06;40.89;44.72;;
40465;Laerm;30489;48.982;8.394;2024-03-23T08:46:30;42.15;40.62;49.35;;
40465;Laerm;30489;48.982;8.394;2024-03-23T08:48:41;42.10;40.71;44.15;;
40465;Laerm;30489;48.982;8.394;2024-03-23T08:51:02;42.08;40.71;43.29;;
40465;Laerm;30489;48.982;8.394;2024-03-23T08:53:12;42.06;40.62;43.09;;
40465;Laerm;30489;48.982;8.394;2024-03-23T08:55:23;42.08;40.71;43.72;;
40465;Laerm;30489;48.982;8.394;2024-03-23T08:57:33;42.10;40.88;43.19;;
40465;Laerm;30489;48.982;8.394;2024-03-23T08:59:43;42.11;40.80;43.09;;
40465;Laerm;30489;48.982;8.394;2024-03-23T09:01:54;42.11;40.71;43.14;;
40465;Laerm;30489;48.982;8.394;2024-03-23T09:04:04;42.12;40.80;43.14;;
40465;Laerm;30489;48.982;8.394;2024-03-23T09:06:14;42.12;40.71;43.14;;
40465;Laerm;30489;48.982;8.394;2024-03-23T09:08:25;42.11;40.53;43.14;;
40465;Laerm;30489;48.982;8.394;2024-03-23T09:10:38;42.11;40.71;43.44;;
40465;Laerm;30489;48.982;8.394;2024-03-23T09:12:48;42.18;40.53;51.82;;
40465;Laerm;30489;48.982;8.394;2024-03-23T09:14:58;42.05;40.62;43.24;;
40465;Laerm;30489;48.982;8.394;2024-03-23T09:17:08;42.04;40.62;43.19;;
40465;Laerm;30489;48.982;8.394;2024-03-23T09:19:19;42.05;40.43;43.14;;
40465;Laerm;30489;48.982;8.394;2024-03-23T09:21:30;42.06;40.71;43.44;;
40465;Laerm;30489;48.982;8.394;2024-03-23T09:23:42;42.14;40.71;50.65;;
40465;Laerm;30489;48.982;8.394;2024-03-23T09:25:53;42.08;40.71;43.24;;
40465;Laerm;30489;48.982;8.394;2024-03-23T09:28:03;42.07;40.71;43.19;;
40465;Laerm;30489;48.982;8.394;2024-03-23T09:30:14;42.10;40.71;43.24;;
40465;Laerm;30489;48.982;8.394;2024-03-23T09:32:24;42.12;40.80;43.24;;
40465;Laerm;30489;48.982;8.394;2024-03-23T09:34:34;42.11;40.43;43.09;;
40465;Laerm;30489;48.982;8.394;2024-03-23T09:36:44;42.11;40.71;43.14;;
40465;Laerm;30489;48.982;8.394;2024-03-23T09:38:55;42.07;40.80;45.04;;
40465;Laerm;30489;48.982;8.394;2024-03-23T09:41:08;42.07;40.53;49.03;;
40465;Laerm;30489;48.982;8.394;2024-03-23T09:43:19;42.04;40.43;43.19;;
40465;Laerm;30489;48.982;8.394;2024-03-23T09:45:29;42.07;40.71;43.14;;
40465;Laerm;30489;48.982;8.394;2024-03-23T09:47:39;42.12;40.80;43.72;;
40465;Laerm;30489;48.982;8.394;2024-03-23T09:49:50;42.14;40.89;43.39;;
40465;Laerm;30489;48.982;8.394;2024-03-23T09:52:00;42.14;40.71;46.82;;
40465;Laerm;30489;48.982;8.394;2024-03-23T09:54:11;42.17;40.89;45.63;;
40465;Laerm;30489;48.982;8.394;2024-03-23T09:56:21;42.18;40.89;47.00;;
40465;Laerm;30489;48.982;8.394;2024-03-23T09:58:31;41.89;40.23;49.40;;
40465;Laerm;30489;48.982;8.394;2024-03-23T10:00:44;41.29;39.81;42.82;;
40465;Laerm;30489;48.982;8.394;2024-03-23T10:02:55;41.22;39.92;42.47;;
40465;Laerm;30489;48.982;8.394;2024-03-23T10:05:11;41.21;39.92;42.24;;
40465;Laerm;30489;48.982;8.394;2024-03-23T10:07:29;41.20;39.92;42.71;;
40465;Laerm;30489;48.982;8.394;2024-03-23T10:09:40;41.05;39.70;42.35;;
40465;Laerm;30489;48.982;8.394;2024-03-23T10:11:50;40.96;39.21;42.16;;
40465;Laerm;30489;48.982;8.394;2024-03-23T10:14:00;40.99;39.46;42.22;;
40465;Laerm;30489;48.982;8.394;2024-03-23T10:16:11;40.92;39.70;42.16;;
40465;Laerm;30489;48.982;8.394;2024-03-23T10:18:21;40.91;39.46;42.16;;
40465;Laerm;30489;48.982;8.394;2024-03-23T10:20:32;40.77;39.46;42.41;;
40465;Laerm;30489;48.982;8.394;2024-03-23T10:22:42;40.75;39.08;42.09;;
40465;Laerm;30489;48.982;8.394;2024-03-23T10:24:53;40.78;39.21;41.96;;
40465;Laerm;30489;48.982;8.394;2024-03-23T10:27:18;40.81;39.34;42.09;;
40465;Laerm;30489;48.982;8.394;2024-03-23T10:29:29;40.75;39.21;42.22;;
40465;Laerm;30489;48.982;8.394;2024-03-23T10:31:39;40.67;39.21;41.82;;
40465;Laerm;30489;48.982;8.394;2024-03-23T10:33:51;40.66;38.67;41.89;;
40465;Laerm;30489;48.982;8.394;2024-03-23T10:36:04;40.69;38.37;42.16;;
40465;Laerm;30489;48.982;8.394;2024-03-23T10:38:15;40.67;38.81;41.96;;
40465;Laerm;30489;48.982;8.394;2024-03-23T10:40:26;40.61;39.21;41.89;;
40465;Laerm;30489;48.982;8.394;2024-03-23T10:42:37;40.49;38.81;41.68;;
40465;Laerm;30489;48.982;8.394;2024-03-23T10:44:47;40.44;39.08;41.89;;
40465;Laerm;30489;48.982;8.394;2024-03-23T10:46:58;40.40;38.81;41.89;;
40465;Laerm;30489;48.982;8.394;2024-03-23T10:49:09;40.37;38.67;41.75;;
40465;Laerm;30489;48.982;8.394;2024-03-23T10:51:20;40.43;38.52;41.89;;
40465;Laerm;30489;48.982;8.394;2024-03-23T10:53:30;40.61;39.08;42.03;;
40465;Laerm;30489;48.982;8.394;2024-03-23T10:55:42;40.70;39.08;41.96;;
40465;Laerm;30489;48.982;8.394;2024-03-23T10:57:54;40.72;39.21;42.16;;
40465;Laerm;30489;48.982;8.394;2024-03-23T11:00:05;40.82;39.21;42.09;;
40465;Laerm;30489;48.982;8.394;2024-03-23T11:02:19;40.97;39.46;42.22;;
40465;Laerm;30489;48.982;8.394;2024-03-23T11:04:33;41.06;39.70;42.16;;
40465;Laerm;30489;48.982;8.394;2024-03-23T11:06:44;41.07;39.46;42.22;;
40465;Laerm;30489;48.982;8.394;2024-03-23T11:08:54;41.08;39.58;42.22;;
40465;Laerm;30489;48.982;8.394;2024-03-23T11:13:24;41.04;39.58;42.41;;
40465;Laerm;30489;48.982;8.394;2024-03-23T11:15:34;41.09;39.58;42.41;;
40465;Laerm;30489;48.982;8.394;2024-03-23T11:20:12;41.22;39.81;42.22;;
40465;Laerm;30489;48.982;8.394;2024-03-23T11:24:53;41.46;39.81;42.88;;
40465;Laerm;30489;48.982;8.394;2024-03-23T11:27:15;41.63;40.18;42.88;;
40465;Laerm;30489;48.982;8.394;2024-03-23T11:29:25;41.57;40.23;42.76;;
40465;Laerm;30489;48.982;8.394;2024-03-23T11:31:36;41.56;40.13;42.65;;
40465;Laerm;30489;48.982;8.394;2024-03-23T11:33:46;41.49;40.08;42.76;;
40465;Laerm;30489;48.982;8.394;2024-03-23T11:35:57;41.35;39.92;42.47;;
40465;Laerm;30489;48.982;8.394;2024-03-23T11:38:11;41.34;40.03;42.65;;
40465;Laerm;30489;48.982;8.394;2024-03-23T11:40:21;41.33;39.92;42.76;;
40465;Laerm;30489;48.982;8.394;2024-03-23T11:42:32;41.34;39.92;42.47;;
40465;Laerm;30489;48.982;8.394;2024-03-23T11:44:42;41.32;39.81;42.41;;
40465;Laerm;30489;48.982;8.394;2024-03-23T11:46:53;41.33;39.70;42.53;;
40465;Laerm;30489;48.982;8.394;2024-03-23T11:49:03;41.34;40.13;42.65;;
40465;Laerm;30489;48.982;8.394;2024-03-23T11:51:13;41.29;40.03;42.41;;
40465;Laerm;30489;48.982;8.394;2024-03-23T11:53:24;41.37;40.13;42.53;;
40465;Laerm;30489;48.982;8.394;2024-03-23T11:57:53;41.49;40.13;42.65;;
40465;Laerm;30489;48.982;8.394;2024-03-23T12:00:19;41.53;40.13;42.71;;
40465;Laerm;30489;48.982;8.394;2024-03-23T12:02:29;41.49;40.03;42.47;;
40465;Laerm;30489;48.982;8.394;2024-03-23T12:04:40;41.44;40.03;42.59;;
40465;Laerm;30489;48.982;8.394;2024-03-23T12:06:50;41.43;40.13;42.53;;
40465;Laerm;30489;48.982;8.394;2024-03-23T12:09:07;41.48;40.03;42.71;;
40465;Laerm;30489;48.982;8.394;2024-03-23T12:11:17;41.49;39.92;42.65;;
40465;Laerm;30489;48.982;8.394;2024-03-23T12:13:28;41.47;40.03;42.88;;
40465;Laerm;30489;48.982;8.394;2024-03-23T12:15:38;41.68;40.43;43.04;;
40465;Laerm;30489;48.982;8.394;2024-03-23T12:17:48;41.80;40.43;42.88;;
40465;Laerm;30489;48.982;8.394;2024-03-23T12:19:59;41.85;40.53;42.98;;
40465;Laerm;30489;48.982;8.394;2024-03-23T12:22:09;41.90;40.62;43.04;;
40465;Laerm;30489;48.982;8.394;2024-03-23T12:24:19;41.95;40.53;43.09;;
40465;Laerm;30489;48.982;8.394;2024-03-23T12:26:29;41.95;40.71;42.98;;
40465;Laerm;30489;48.982;8.394;2024-03-23T12:28:40;41.96;40.80;43.19;;
40465;Laerm;30489;48.982;8.394;2024-03-23T12:30:50;41.99;40.80;43.09;;
40465;Laerm;30489;48.982;8.394;2024-03-23T12:33:00;42.02;40.71;43.19;;
40465;Laerm;30489;48.982;8.394;2024-03-23T12:35:10;42.00;40.62;43.09;;
40465;Laerm;30489;48.982;8.394;2024-03-23T12:37:21;41.95;40.33;43.14;;
40465;Laerm;30489;48.982;8.394;2024-03-23T12:39:31;41.95;40.71;42.98;;
40465;Laerm;30489;48.982;8.394;2024-03-23T12:41:41;42.00;40.71;43.86;;
40465;Laerm;30489;48.982;8.394;2024-03-23T12:43:51;42.05;40.89;43.14;;
40465;Laerm;30489;48.982;8.394;2024-03-23T12:46:02;41.94;40.71;43.09;;
40465;Laerm;30489;48.982;8.394;2024-03-23T12:48:12;41.97;40.89;42.93;;
40465;Laerm;30489;48.982;8.394;2024-03-23T12:50:22;42.01;40.62;43.04;;
40465;Laerm;30489;48.982;8.394;2024-03-23T12:52:32;42.01;40.80;43.29;;
40465;Laerm;30489;48.982;8.394;2024-03-23T12:54:43;42.00;40.89;43.09;;
40465;Laerm;30489;48.982;8.394;2024-03-23T12:56:53;42.04;40.71;43.81;;
40465;Laerm;30489;48.982;8.394;2024-03-23T12:59:03;42.13;40.71;43.63;;
40465;Laerm;30489;48.982;8.394;2024-03-23T13:01:13;42.17;40.80;46.52;;
40465;Laerm;30489;48.982;8.394;2024-03-23T13:03:24;42.24;40.71;56.51;;
40465;Laerm;30489;48.982;8.394;2024-03-23T13:05:34;41.92;40.71;43.04;;
40465;Laerm;30489;48.982;8.394;2024-03-23T13:07:44;41.87;40.53;43.44;;
40465;Laerm;30489;48.982;8.394;2024-03-23T13:09:54;41.81;40.53;42.82;;
40465;Laerm;30489;48.982;8.394;2024-03-23T13:12:06;41.81;40.62;43.58;;
40465;Laerm;30489;48.982;8.394;2024-03-23T13:14:16;41.85;40.53;42.88;;